sensor_id;sensor_type;location;lat;lon;timestamp;temperature;humidity
39095;DHT22;24840;47.508;19.376;2023-01-08T00:01:54;6.10;99.90
39095;DHT22;24840;47.508;19.376;2023-01-08T00:04:20;6.20;99.90
39095;DHT22;24840;47.508;19.376;2023-01-08T00:06:46;6.20;99.90
39095;DHT22;24840;47.508;19.376;2023-01-08T00:09:11;6.20;99.90
39095;DHT22;24840;47.508;19.376;2023-01-08T00:11:37;6.10;99.90
39095;DHT22;24840;47.508;19.376;2023-01-08T00:14:03;6.10;99.90
39095;DHT22;24840;47.508;19.376;2023-01-08T00:16:30;6.10;99.90
39095;DHT22;24840;47.508;19.376;2023-01-08T00:18:56;6.10;99.90
39095;DHT22;24840;47.508;19.376;2023-01-08T00:21:22;6.10;99.90
39095;DHT22;24840;47.508;19.376;2023-01-08T00:23:48;6.10;99.90
39095;DHT22;24840;47.508;19.376;2023-01-08T00:26:13;6.10;99.90
39095;DHT22;24840;47.508;19.376;2023-01-08T00:28:40;6.10;99.90
39095;DHT22;24840;47.508;19.376;2023-01-08T00:31:07;6.10;99.90
39095;DHT22;24840;47.508;19.376;2023-01-08T00:33:33;6.10;99.90
39095;DHT22;24840;47.508;19.376;2023-01-08T00:36:00;6.10;99.90
39095;DHT22;24840;47.508;19.376;2023-01-08T00:38:27;6.10;99.90
39095;DHT22;24840;47.508;19.376;2023-01-08T00:40:53;6.20;99.90
39095;DHT22;24840;47.508;19.376;2023-01-08T00:43:19;6.20;99.90
39095;DHT22;24840;47.508;19.376;2023-01-08T00:45:44;6.20;99.90
39095;DHT22;24840;47.508;19.376;2023-01-08T00:48:10;6.10;99.90
39095;DHT22;24840;47.508;19.376;2023-01-08T00:50:36;6.10;99.90
39095;DHT22;24840;47.508;19.376;2023-01-08T00:53:02;6.10;99.90
39095;DHT22;24840;47.508;19.376;2023-01-08T00:55:28;6.10;99.90
39095;DHT22;24840;47.508;19.376;2023-01-08T00:57:54;6.10;99.90
39095;DHT22;24840;47.508;19.376;2023-01-08T01:00:20;6.10;99.90
39095;DHT22;24840;47.508;19.376;2023-01-08T01:02:46;6.20;99.90
39095;DHT22;24840;47.508;19.376;2023-01-08T01:05:13;6.20;99.90
39095;DHT22;24840;47.508;19.376;2023-01-08T01:07:40;6.10;99.90
39095;DHT22;24840;47.508;19.376;2023-01-08T01:10:07;6.20;99.90
39095;DHT22;24840;47.508;19.376;2023-01-08T01:12:33;6.20;99.90
39095;DHT22;24840;47.508;19.376;2023-01-08T01:14:59;6.10;99.90
39095;DHT22;24840;47.508;19.376;2023-01-08T01:17:24;6.20;99.90
39095;DHT22;24840;47.508;19.376;2023-01-08T01:19:50;6.10;99.90
39095;DHT22;24840;47.508;19.376;2023-01-08T01:22:16;6.10;99.90
39095;DHT22;24840;47.508;19.376;2023-01-08T01:24:41;6.20;99.90
39095;DHT22;24840;47.508;19.376;2023-01-08T01:27:07;6.20;99.90
39095;DHT22;24840;47.508;19.376;2023-01-08T01:29:33;6.20;99.90
39095;DHT22;24840;47.508;19.376;2023-01-08T01:31:59;6.20;99.90
39095;DHT22;24840;47.508;19.376;2023-01-08T01:34:24;6.20;99.90
39095;DHT22;24840;47.508;19.376;2023-01-08T01:36:50;6.20;99.90
39095;DHT22;24840;47.508;19.376;2023-01-08T01:39:16;6.10;99.90
39095;DHT22;24840;47.508;19.376;2023-01-08T01:41:42;6.10;99.90
39095;DHT22;24840;47.508;19.376;2023-01-08T01:47:00;6.10;99.90
39095;DHT22;24840;47.508;19.376;2023-01-08T01:49:27;6.10;99.90
39095;DHT22;24840;47.508;19.376;2023-01-08T01:51:57;6.10;99.90
39095;DHT22;24840;47.508;19.376;2023-01-08T01:54:27;6.00;99.90
39095;DHT22;24840;47.508;19.376;2023-01-08T01:56:55;6.10;99.90
39095;DHT22;24840;47.508;19.376;2023-01-08T01:59:21;6.10;99.90
39095;DHT22;24840;47.508;19.376;2023-01-08T02:01:47;6.00;99.90
39095;DHT22;24840;47.508;19.376;2023-01-08T02:04:13;6.10;99.90
39095;DHT22;24840;47.508;19.376;2023-01-08T02:09:47;6.00;99.90
39095;DHT22;24840;47.508;19.376;2023-01-08T02:17:31;6.00;99.90
39095;DHT22;24840;47.508;19.376;2023-01-08T02:20:15;6.00;99.90
39095;DHT22;24840;47.508;19.376;2023-01-08T02:22:54;6.00;99.90
39095;DHT22;24840;47.508;19.376;2023-01-08T02:28:21;6.00;99.90
39095;DHT22;24840;47.508;19.376;2023-01-08T02:30:47;6.00;99.90
39095;DHT22;24840;47.508;19.376;2023-01-08T02:33:14;6.00;99.90
39095;DHT22;24840;47.508;19.376;2023-01-08T02:35:45;6.00;99.90
39095;DHT22;24840;47.508;19.376;2023-01-08T02:38:15;6.00;99.90
39095;DHT22;24840;47.508;19.376;2023-01-08T02:41:03;6.00;99.90
39095;DHT22;24840;47.508;19.376;2023-01-08T02:43:44;6.00;99.90
39095;DHT22;24840;47.508;19.376;2023-01-08T02:46:24;5.90;99.90
39095;DHT22;24840;47.508;19.376;2023-01-08T02:49:01;6.00;99.90
39095;DHT22;24840;47.508;19.376;2023-01-08T02:51:34;5.90;99.90
39095;DHT22;24840;47.508;19.376;2023-01-08T02:54:04;5.90;99.90
39095;DHT22;24840;47.508;19.376;2023-01-08T02:56:36;5.90;99.90
39095;DHT22;24840;47.508;19.376;2023-01-08T02:59:06;6.00;99.90
39095;DHT22;24840;47.508;19.376;2023-01-08T03:01:33;6.00;99.90
39095;DHT22;24840;47.508;19.376;2023-01-08T03:04:03;5.90;99.90
39095;DHT22;24840;47.508;19.376;2023-01-08T03:06:31;5.90;99.90
39095;DHT22;24840;47.508;19.376;2023-01-08T03:08:58;5.90;99.90
39095;DHT22;24840;47.508;19.376;2023-01-08T03:11:30;5.90;99.90
39095;DHT22;24840;47.508;19.376;2023-01-08T03:16:57;6.00;99.90
39095;DHT22;24840;47.508;19.376;2023-01-08T03:19:37;5.90;99.90
39095;DHT22;24840;47.508;19.376;2023-01-08T03:22:08;5.90;99.90
39095;DHT22;24840;47.508;19.376;2023-01-08T03:24:37;5.80;99.90
39095;DHT22;24840;47.508;19.376;2023-01-08T03:27:05;5.90;99.90
39095;DHT22;24840;47.508;19.376;2023-01-08T03:29:35;5.90;99.90
39095;DHT22;24840;47.508;19.376;2023-01-08T03:32:07;5.80;99.90
39095;DHT22;24840;47.508;19.376;2023-01-08T03:34:35;5.80;99.90
39095;DHT22;24840;47.508;19.376;2023-01-08T03:37:04;5.80;99.90
39095;DHT22;24840;47.508;19.376;2023-01-08T03:39:50;5.90;99.90
39095;DHT22;24840;47.508;19.376;2023-01-08T03:42:18;5.80;99.90
39095;DHT22;24840;47.508;19.376;2023-01-08T03:44:44;5.80;99.90
39095;DHT22;24840;47.508;19.376;2023-01-08T03:47:11;5.80;99.90
39095;DHT22;24840;47.508;19.376;2023-01-08T03:49:38;5.80;99.90
39095;DHT22;24840;47.508;19.376;2023-01-08T03:52:05;5.70;99.90
39095;DHT22;24840;47.508;19.376;2023-01-08T03:54:33;5.70;99.90
39095;DHT22;24840;47.508;19.376;2023-01-08T03:56:59;5.70;99.90
39095;DHT22;24840;47.508;19.376;2023-01-08T03:59:25;5.70;99.90
39095;DHT22;24840;47.508;19.376;2023-01-08T04:01:50;5.70;99.90
39095;DHT22;24840;47.508;19.376;2023-01-08T04:04:17;5.70;99.90
39095;DHT22;24840;47.508;19.376;2023-01-08T04:06:42;5.70;99.90
39095;DHT22;24840;47.508;19.376;2023-01-08T04:09:09;5.70;99.90
39095;DHT22;24840;47.508;19.376;2023-01-08T04:11:34;5.70;99.90
39095;DHT22;24840;47.508;19.376;2023-01-08T04:14:00;5.70;99.90
39095;DHT22;24840;47.508;19.376;2023-01-08T04:16:26;5.70;99.90
39095;DHT22;24840;47.508;19.376;2023-01-08T04:18:52;5.70;99.90
39095;DHT22;24840;47.508;19.376;2023-01-08T04:21:17;5.70;99.90
39095;DHT22;24840;47.508;19.376;2023-01-08T04:23:43;5.60;99.90
39095;DHT22;24840;47.508;19.376;2023-01-08T04:26:09;5.60;99.90
39095;DHT22;24840;47.508;19.376;2023-01-08T04:28:35;5.60;99.90
39095;DHT22;24840;47.508;19.376;2023-01-08T04:31:06;5.60;99.90
39095;DHT22;24840;47.508;19.376;2023-01-08T04:33:32;5.60;99.90
39095;DHT22;24840;47.508;19.376;2023-01-08T04:35:57;5.60;99.90
39095;DHT22;24840;47.508;19.376;2023-01-08T04:38:23;5.60;99.90
39095;DHT22;24840;47.508;19.376;2023-01-08T04:40:49;5.60;99.90
39095;DHT22;24840;47.508;19.376;2023-01-08T04:43:14;5.60;99.90
39095;DHT22;24840;47.508;19.376;2023-01-08T04:45:40;5.60;99.90
39095;DHT22;24840;47.508;19.376;2023-01-08T04:48:06;5.60;99.90
39095;DHT22;24840;47.508;19.376;2023-01-08T04:50:32;5.60;99.90
39095;DHT22;24840;47.508;19.376;2023-01-08T04:52:58;5.60;99.90
39095;DHT22;24840;47.508;19.376;2023-01-08T04:55:24;5.60;99.90
39095;DHT22;24840;47.508;19.376;2023-01-08T04:57:50;5.60;99.90
39095;DHT22;24840;47.508;19.376;2023-01-08T05:00:16;5.60;99.90
39095;DHT22;24840;47.508;19.376;2023-01-08T05:02:41;5.60;99.90
39095;DHT22;24840;47.508;19.376;2023-01-08T05:05:07;5.60;99.90
39095;DHT22;24840;47.508;19.376;2023-01-08T05:07:33;5.60;99.90
39095;DHT22;24840;47.508;19.376;2023-01-08T05:09:59;5.60;99.90
39095;DHT22;24840;47.508;19.376;2023-01-08T05:12:25;5.60;99.90
39095;DHT22;24840;47.508;19.376;2023-01-08T05:14:50;5.60;99.90
39095;DHT22;24840;47.508;19.376;2023-01-08T05:17:16;5.50;99.90
39095;DHT22;24840;47.508;19.376;2023-01-08T05:19:42;5.50;99.90
39095;DHT22;24840;47.508;19.376;2023-01-08T05:22:07;5.50;99.90
39095;DHT22;24840;47.508;19.376;2023-01-08T05:24:33;5.60;99.90
39095;DHT22;24840;47.508;19.376;2023-01-08T05:26:59;5.50;99.90
39095;DHT22;24840;47.508;19.376;2023-01-08T05:29:24;5.50;99.90
39095;DHT22;24840;47.508;19.376;2023-01-08T05:31:50;5.60;99.90
39095;DHT22;24840;47.508;19.376;2023-01-08T05:34:16;5.60;99.90
39095;DHT22;24840;47.508;19.376;2023-01-08T05:36:41;5.60;99.90
39095;DHT22;24840;47.508;19.376;2023-01-08T05:39:07;5.60;99.90
39095;DHT22;24840;47.508;19.376;2023-01-08T05:41:33;5.60;99.90
39095;DHT22;24840;47.508;19.376;2023-01-08T05:43:59;5.60;99.90
39095;DHT22;24840;47.508;19.376;2023-01-08T05:46:25;5.60;99.90
39095;DHT22;24840;47.508;19.376;2023-01-08T05:48:51;5.40;99.90
39095;DHT22;24840;47.508;19.376;2023-01-08T05:51:16;5.50;99.90
39095;DHT22;24840;47.508;19.376;2023-01-08T05:53:42;5.50;99.90
39095;DHT22;24840;47.508;19.376;2023-01-08T05:56:09;5.50;99.90
39095;DHT22;24840;47.508;19.376;2023-01-08T05:58:36;5.50;99.90
39095;DHT22;24840;47.508;19.376;2023-01-08T06:01:07;5.50;99.90
39095;DHT22;24840;47.508;19.376;2023-01-08T06:03:35;5.40;99.90
39095;DHT22;24840;47.508;19.376;2023-01-08T06:06:02;5.40;99.90
39095;DHT22;24840;47.508;19.376;2023-01-08T06:08:29;5.50;99.90
39095;DHT22;24840;47.508;19.376;2023-01-08T06:11:04;5.50;99.90
39095;DHT22;24840;47.508;19.376;2023-01-08T06:13:31;5.50;99.90
39095;DHT22;24840;47.508;19.376;2023-01-08T06:15:58;5.60;99.90
39095;DHT22;24840;47.508;19.376;2023-01-08T06:18:25;5.50;99.90
39095;DHT22;24840;47.508;19.376;2023-01-08T06:20:51;5.60;99.90
39095;DHT22;24840;47.508;19.376;2023-01-08T06:23:16;5.50;99.90
39095;DHT22;24840;47.508;19.376;2023-01-08T06:25:42;5.50;99.90
39095;DHT22;24840;47.508;19.376;2023-01-08T06:28:08;5.40;99.90
39095;DHT22;24840;47.508;19.376;2023-01-08T06:30:34;5.40;99.90
39095;DHT22;24840;47.508;19.376;2023-01-08T06:33:00;5.40;99.90
39095;DHT22;24840;47.508;19.376;2023-01-08T06:35:26;5.40;99.90
39095;DHT22;24840;47.508;19.376;2023-01-08T06:37:55;5.40;99.90
39095;DHT22;24840;47.508;19.376;2023-01-08T06:40:22;5.40;99.90
39095;DHT22;24840;47.508;19.376;2023-01-08T06:42:48;5.40;99.90
39095;DHT22;24840;47.508;19.376;2023-01-08T06:45:14;5.40;99.90
39095;DHT22;24840;47.508;19.376;2023-01-08T06:47:39;5.40;99.90
39095;DHT22;24840;47.508;19.376;2023-01-08T06:50:06;5.40;99.90
39095;DHT22;24840;47.508;19.376;2023-01-08T06:52:32;5.40;99.90
39095;DHT22;24840;47.508;19.376;2023-01-08T06:54:58;5.40;99.90
39095;DHT22;24840;47.508;19.376;2023-01-08T06:57:24;5.40;99.90
39095;DHT22;24840;47.508;19.376;2023-01-08T06:59:49;5.40;99.90
39095;DHT22;24840;47.508;19.376;2023-01-08T07:02:17;5.40;99.90
39095;DHT22;24840;47.508;19.376;2023-01-08T07:04:43;5.30;99.90
39095;DHT22;24840;47.508;19.376;2023-01-08T07:07:12;5.40;99.90
39095;DHT22;24840;47.508;19.376;2023-01-08T07:09:39;5.40;99.90
39095;DHT22;24840;47.508;19.376;2023-01-08T07:12:05;5.40;99.90
39095;DHT22;24840;47.508;19.376;2023-01-08T07:14:33;5.40;99.90
39095;DHT22;24840;47.508;19.376;2023-01-08T07:16:59;5.40;99.90
39095;DHT22;24840;47.508;19.376;2023-01-08T07:19:24;5.40;99.90
39095;DHT22;24840;47.508;19.376;2023-01-08T07:21:50;5.40;99.90
39095;DHT22;24840;47.508;19.376;2023-01-08T07:24:16;5.30;99.90
39095;DHT22;24840;47.508;19.376;2023-01-08T07:26:41;5.40;99.90
39095;DHT22;24840;47.508;19.376;2023-01-08T07:29:07;5.30;99.90
39095;DHT22;24840;47.508;19.376;2023-01-08T07:31:33;5.30;99.90
39095;DHT22;24840;47.508;19.376;2023-01-08T07:33:59;5.40;99.90
39095;DHT22;24840;47.508;19.376;2023-01-08T07:36:24;5.40;99.90
39095;DHT22;24840;47.508;19.376;2023-01-08T07:38:50;5.30;99.90
39095;DHT22;24840;47.508;19.376;2023-01-08T07:41:16;5.40;99.90
39095;DHT22;24840;47.508;19.376;2023-01-08T07:43:42;5.30;99.90
39095;DHT22;24840;47.508;19.376;2023-01-08T07:46:08;5.30;99.90
39095;DHT22;24840;47.508;19.376;2023-01-08T07:48:34;5.20;99.90
39095;DHT22;24840;47.508;19.376;2023-01-08T07:51:05;5.20;99.90
39095;DHT22;24840;47.508;19.376;2023-01-08T07:53:31;5.30;99.90
39095;DHT22;24840;47.508;19.376;2023-01-08T07:56:01;5.30;99.90
39095;DHT22;24840;47.508;19.376;2023-01-08T07:58:28;5.30;99.90
39095;DHT22;24840;47.508;19.376;2023-01-08T08:00:54;5.30;99.90
39095;DHT22;24840;47.508;19.376;2023-01-08T08:03:20;5.20;99.90
39095;DHT22;24840;47.508;19.376;2023-01-08T08:05:46;5.20;99.90
39095;DHT22;24840;47.508;19.376;2023-01-08T08:08:12;5.30;99.90
39095;DHT22;24840;47.508;19.376;2023-01-08T08:10:39;5.30;99.90
39095;DHT22;24840;47.508;19.376;2023-01-08T08:13:05;5.30;99.90
39095;DHT22;24840;47.508;19.376;2023-01-08T08:15:32;5.20;99.90
39095;DHT22;24840;47.508;19.376;2023-01-08T08:17:58;5.30;99.90
39095;DHT22;24840;47.508;19.376;2023-01-08T08:20:24;5.20;99.90
39095;DHT22;24840;47.508;19.376;2023-01-08T08:22:50;5.30;99.90
39095;DHT22;24840;47.508;19.376;2023-01-08T08:25:16;5.20;99.90
39095;DHT22;24840;47.508;19.376;2023-01-08T08:27:43;5.30;99.90
39095;DHT22;24840;47.508;19.376;2023-01-08T08:30:10;5.20;99.90
39095;DHT22;24840;47.508;19.376;2023-01-08T08:32:36;5.20;99.90
39095;DHT22;24840;47.508;19.376;2023-01-08T08:35:03;5.20;99.90
39095;DHT22;24840;47.508;19.376;2023-01-08T08:37:29;5.20;99.90
39095;DHT22;24840;47.508;19.376;2023-01-08T08:39:54;5.20;99.90
39095;DHT22;24840;47.508;19.376;2023-01-08T08:42:20;5.20;99.90
39095;DHT22;24840;47.508;19.376;2023-01-08T08:44:46;5.30;99.90
39095;DHT22;24840;47.508;19.376;2023-01-08T08:47:12;5.30;99.90
39095;DHT22;24840;47.508;19.376;2023-01-08T08:49:38;5.30;99.90
39095;DHT22;24840;47.508;19.376;2023-01-08T08:52:04;5.30;99.90
39095;DHT22;24840;47.508;19.376;2023-01-08T08:54:30;5.20;99.90
39095;DHT22;24840;47.508;19.376;2023-01-08T08:56:56;5.20;99.90
39095;DHT22;24840;47.508;19.376;2023-01-08T08:59:22;5.30;99.90
39095;DHT22;24840;47.508;19.376;2023-01-08T09:01:47;5.30;99.90
39095;DHT22;24840;47.508;19.376;2023-01-08T09:04:13;5.30;99.90
39095;DHT22;24840;47.508;19.376;2023-01-08T09:06:39;5.30;99.90
39095;DHT22;24840;47.508;19.376;2023-01-08T09:09:05;5.30;99.90
39095;DHT22;24840;47.508;19.376;2023-01-08T09:11:31;5.30;99.90
39095;DHT22;24840;47.508;19.376;2023-01-08T09:13:56;5.30;99.90
39095;DHT22;24840;47.508;19.376;2023-01-08T09:16:22;5.30;99.90
39095;DHT22;24840;47.508;19.376;2023-01-08T09:18:48;5.30;99.90
39095;DHT22;24840;47.508;19.376;2023-01-08T09:21:14;5.30;99.90
39095;DHT22;24840;47.508;19.376;2023-01-08T09:23:40;5.40;99.90
39095;DHT22;24840;47.508;19.376;2023-01-08T09:26:06;5.40;99.90
39095;DHT22;24840;47.508;19.376;2023-01-08T09:28:32;5.50;99.90
39095;DHT22;24840;47.508;19.376;2023-01-08T09:31:02;5.50;99.90
39095;DHT22;24840;47.508;19.376;2023-01-08T09:33:28;5.50;99.90
39095;DHT22;24840;47.508;19.376;2023-01-08T09:35:54;5.60;99.90
39095;DHT22;24840;47.508;19.376;2023-01-08T09:38:20;5.60;99.90
39095;DHT22;24840;47.508;19.376;2023-01-08T09:41:00;5.60;99.90
39095;DHT22;24840;47.508;19.376;2023-01-08T09:43:30;5.60;99.90
39095;DHT22;24840;47.508;19.376;2023-01-08T09:45:59;5.50;99.90
39095;DHT22;24840;47.508;19.376;2023-01-08T09:48:33;5.60;99.90
39095;DHT22;24840;47.508;19.376;2023-01-08T09:51:00;5.60;99.90
39095;DHT22;24840;47.508;19.376;2023-01-08T09:53:26;5.50;99.90
39095;DHT22;24840;47.508;19.376;2023-01-08T09:55:58;5.60;99.90
39095;DHT22;24840;47.508;19.376;2023-01-08T10:01:20;5.80;99.90
39095;DHT22;24840;47.508;19.376;2023-01-08T10:06:32;5.90;99.90
39095;DHT22;24840;47.508;19.376;2023-01-08T10:08:58;6.20;99.90
39095;DHT22;24840;47.508;19.376;2023-01-08T10:11:34;6.50;99.90
39095;DHT22;24840;47.508;19.376;2023-01-08T10:14:03;6.60;99.90
39095;DHT22;24840;47.508;19.376;2023-01-08T10:16:34;6.70;99.90
39095;DHT22;24840;47.508;19.376;2023-01-08T10:19:03;6.70;99.90
39095;DHT22;24840;47.508;19.376;2023-01-08T10:21:37;6.70;99.90
39095;DHT22;24840;47.508;19.376;2023-01-08T10:24:04;6.90;99.90
39095;DHT22;24840;47.508;19.376;2023-01-08T10:26:31;6.80;99.90
39095;DHT22;24840;47.508;19.376;2023-01-08T10:29:12;6.80;99.90
39095;DHT22;24840;47.508;19.376;2023-01-08T10:31:50;7.10;99.90
39095;DHT22;24840;47.508;19.376;2023-01-08T10:36:48;7.30;99.90
39095;DHT22;24840;47.508;19.376;2023-01-08T10:39:26;7.30;99.90
39095;DHT22;24840;47.508;19.376;2023-01-08T10:41:56;7.20;99.90
39095;DHT22;24840;47.508;19.376;2023-01-08T10:44:27;7.40;99.90
39095;DHT22;24840;47.508;19.376;2023-01-08T10:46:55;7.60;99.90
39095;DHT22;24840;47.508;19.376;2023-01-08T10:49:42;7.70;99.90
39095;DHT22;24840;47.508;19.376;2023-01-08T10:52:38;7.60;99.90
39095;DHT22;24840;47.508;19.376;2023-01-08T10:55:24;7.70;99.90
39095;DHT22;24840;47.508;19.376;2023-01-08T10:57:58;7.60;99.90
39095;DHT22;24840;47.508;19.376;2023-01-08T11:00:32;7.50;99.90
39095;DHT22;24840;47.508;19.376;2023-01-08T11:03:00;7.50;99.90
39095;DHT22;24840;47.508;19.376;2023-01-08T11:05:37;7.40;99.90
39095;DHT22;24840;47.508;19.376;2023-01-08T11:08:14;7.50;99.90
39095;DHT22;24840;47.508;19.376;2023-01-08T11:10:41;7.60;99.90
39095;DHT22;24840;47.508;19.376;2023-01-08T11:13:13;7.60;99.90
39095;DHT22;24840;47.508;19.376;2023-01-08T11:15:41;7.90;99.90
39095;DHT22;24840;47.508;19.376;2023-01-08T11:18:15;8.80;99.90
39095;DHT22;24840;47.508;19.376;2023-01-08T11:20:42;9.90;99.90
39095;DHT22;24840;47.508;19.376;2023-01-08T11:23:25;10.10;99.90
39095;DHT22;24840;47.508;19.376;2023-01-08T11:26:16;9.60;99.90
39095;DHT22;24840;47.508;19.376;2023-01-08T11:28:58;8.90;99.90
39095;DHT22;24840;47.508;19.376;2023-01-08T11:31:37;8.70;99.90
39095;DHT22;24840;47.508;19.376;2023-01-08T11:34:18;8.60;99.90
39095;DHT22;24840;47.508;19.376;2023-01-08T11:37:01;8.70;99.90
39095;DHT22;24840;47.508;19.376;2023-01-08T11:39:27;8.70;99.90
39095;DHT22;24840;47.508;19.376;2023-01-08T11:45:14;8.60;99.90
39095;DHT22;24840;47.508;19.376;2023-01-08T11:47:49;8.60;99.90
39095;DHT22;24840;47.508;19.376;2023-01-08T12:06:07;8.50;99.90
39095;DHT22;24840;47.508;19.376;2023-01-08T12:08:48;8.50;99.90
39095;DHT22;24840;47.508;19.376;2023-01-08T12:11:22;8.50;99.90
39095;DHT22;24840;47.508;19.376;2023-01-08T12:14:01;8.30;99.90
39095;DHT22;24840;47.508;19.376;2023-01-08T12:24:31;8.60;99.90
39095;DHT22;24840;47.508;19.376;2023-01-08T12:30:06;9.00;99.90
39095;DHT22;24840;47.508;19.376;2023-01-08T12:32:41;8.90;99.90
39095;DHT22;24840;47.508;19.376;2023-01-08T12:35:16;8.90;99.90
39095;DHT22;24840;47.508;19.376;2023-01-08T12:37:58;8.80;99.90
39095;DHT22;24840;47.508;19.376;2023-01-08T12:40:41;8.80;99.90
39095;DHT22;24840;47.508;19.376;2023-01-08T12:43:59;8.70;99.90
39095;DHT22;24840;47.508;19.376;2023-01-08T12:46:05;8.80;99.90
39095;DHT22;24840;47.508;19.376;2023-01-08T12:48:34;8.70;99.90
39095;DHT22;24840;47.508;19.376;2023-01-08T13:01:48;8.80;99.90
39095;DHT22;24840;47.508;19.376;2023-01-08T13:04:15;8.80;99.90
39095;DHT22;24840;47.508;19.376;2023-01-08T13:07:01;8.80;99.90
39095;DHT22;24840;47.508;19.376;2023-01-08T13:09:27;8.90;99.90
39095;DHT22;24840;47.508;19.376;2023-01-08T13:11:55;8.90;99.90
39095;DHT22;24840;47.508;19.376;2023-01-08T13:14:21;8.90;99.90
39095;DHT22;24840;47.508;19.376;2023-01-08T13:17:01;8.80;99.90
39095;DHT22;24840;47.508;19.376;2023-01-08T13:19:42;8.80;99.90
39095;DHT22;24840;47.508;19.376;2023-01-08T13:22:23;8.80;99.90
39095;DHT22;24840;47.508;19.376;2023-01-08T13:24:50;8.80;99.90
39095;DHT22;24840;47.508;19.376;2023-01-08T13:29:42;8.80;99.90
39095;DHT22;24840;47.508;19.376;2023-01-08T13:32:44;8.80;99.90
39095;DHT22;24840;47.508;19.376;2023-01-08T13:37:45;8.80;99.90
39095;DHT22;24840;47.508;19.376;2023-01-08T13:43:03;8.70;99.90
39095;DHT22;24840;47.508;19.376;2023-01-08T13:45:30;8.70;99.90
39095;DHT22;24840;47.508;19.376;2023-01-08T13:47:57;8.60;99.90
39095;DHT22;24840;47.508;19.376;2023-01-08T13:50:24;8.60;99.90
39095;DHT22;24840;47.508;19.376;2023-01-08T13:52:58;8.50;99.90
39095;DHT22;24840;47.508;19.376;2023-01-08T13:55:32;8.50;99.90
39095;DHT22;24840;47.508;19.376;2023-01-08T13:58:00;8.50;99.90
39095;DHT22;24840;47.508;19.376;2023-01-08T14:03:02;8.50;99.90
39095;DHT22;24840;47.508;19.376;2023-01-08T14:05:30;8.40;99.90
39095;DHT22;24840;47.508;19.376;2023-01-08T14:07:58;8.40;99.90
39095;DHT22;24840;47.508;19.376;2023-01-08T14:10:25;8.40;99.90
39095;DHT22;24840;47.508;19.376;2023-01-08T14:12:52;8.40;99.90
39095;DHT22;24840;47.508;19.376;2023-01-08T14:15:25;8.40;99.90
39095;DHT22;24840;47.508;19.376;2023-01-08T14:17:52;8.40;99.90
39095;DHT22;24840;47.508;19.376;2023-01-08T14:20:39;8.30;99.90
39095;DHT22;24840;47.508;19.376;2023-01-08T14:23:19;8.30;99.90
39095;DHT22;24840;47.508;19.376;2023-01-08T14:25:47;8.30;99.90
39095;DHT22;24840;47.508;19.376;2023-01-08T14:28:19;8.30;99.90
39095;DHT22;24840;47.508;19.376;2023-01-08T14:33:14;8.20;99.90
39095;DHT22;24840;47.508;19.376;2023-01-08T14:35:40;8.20;99.90
39095;DHT22;24840;47.508;19.376;2023-01-08T14:38:12;8.20;99.90
39095;DHT22;24840;47.508;19.376;2023-01-08T14:40:41;8.20;99.90
39095;DHT22;24840;47.508;19.376;2023-01-08T14:43:12;8.20;99.90
39095;DHT22;24840;47.508;19.376;2023-01-08T14:45:47;8.20;99.90
39095;DHT22;24840;47.508;19.376;2023-01-08T14:48:41;8.20;99.90
39095;DHT22;24840;47.508;19.376;2023-01-08T14:51:10;8.10;99.90
39095;DHT22;24840;47.508;19.376;2023-01-08T14:53:42;8.10;99.90
39095;DHT22;24840;47.508;19.376;2023-01-08T14:56:12;8.10;99.90
39095;DHT22;24840;47.508;19.376;2023-01-08T14:58:41;8.00;99.90
39095;DHT22;24840;47.508;19.376;2023-01-08T15:01:17;8.00;99.90
39095;DHT22;24840;47.508;19.376;2023-01-08T15:03:45;8.00;99.90
39095;DHT22;24840;47.508;19.376;2023-01-08T15:06:26;7.90;99.90
39095;DHT22;24840;47.508;19.376;2023-01-08T15:08:52;7.90;99.90
39095;DHT22;24840;47.508;19.376;2023-01-08T15:13:45;7.90;99.90
39095;DHT22;24840;47.508;19.376;2023-01-08T15:16:28;7.80;99.90
39095;DHT22;24840;47.508;19.376;2023-01-08T15:19:10;7.80;99.90
39095;DHT22;24840;47.508;19.376;2023-01-08T15:21:37;7.80;99.90
39095;DHT22;24840;47.508;19.376;2023-01-08T15:24:05;7.80;99.90
39095;DHT22;24840;47.508;19.376;2023-01-08T15:26:31;7.80;99.90
39095;DHT22;24840;47.508;19.376;2023-01-08T15:29:05;7.80;99.90
39095;DHT22;24840;47.508;19.376;2023-01-08T15:34:09;7.70;99.90
39095;DHT22;24840;47.508;19.376;2023-01-08T15:36:35;7.70;99.90
39095;DHT22;24840;47.508;19.376;2023-01-08T15:39:00;7.70;99.90
39095;DHT22;24840;47.508;19.376;2023-01-08T15:41:36;7.70;99.90
39095;DHT22;24840;47.508;19.376;2023-01-08T15:44:21;7.60;99.90
39095;DHT22;24840;47.508;19.376;2023-01-08T15:46:46;7.60;99.90
39095;DHT22;24840;47.508;19.376;2023-01-08T15:49:12;7.60;99.90
39095;DHT22;24840;47.508;19.376;2023-01-08T15:51:45;7.70;99.90
39095;DHT22;24840;47.508;19.376;2023-01-08T15:54:12;7.60;99.90
39095;DHT22;24840;47.508;19.376;2023-01-08T15:56:38;7.60;99.90
39095;DHT22;24840;47.508;19.376;2023-01-08T15:59:04;7.60;99.90
39095;DHT22;24840;47.508;19.376;2023-01-08T16:01:31;7.60;99.90
39095;DHT22;24840;47.508;19.376;2023-01-08T16:03:57;7.60;99.90
39095;DHT22;24840;47.508;19.376;2023-01-08T16:06:23;7.60;99.90
39095;DHT22;24840;47.508;19.376;2023-01-08T16:08:50;7.60;99.90
39095;DHT22;24840;47.508;19.376;2023-01-08T16:11:17;7.60;99.90
39095;DHT22;24840;47.508;19.376;2023-01-08T16:13:43;7.60;99.90
39095;DHT22;24840;47.508;19.376;2023-01-08T16:16:14;7.60;99.90
39095;DHT22;24840;47.508;19.376;2023-01-08T16:18:40;7.60;99.90
39095;DHT22;24840;47.508;19.376;2023-01-08T16:21:07;7.50;99.90
39095;DHT22;24840;47.508;19.376;2023-01-08T16:23:34;7.50;99.90
39095;DHT22;24840;47.508;19.376;2023-01-08T16:26:11;7.50;99.90
39095;DHT22;24840;47.508;19.376;2023-01-08T16:28:37;7.50;99.90
39095;DHT22;24840;47.508;19.376;2023-01-08T16:31:03;7.40;99.90
39095;DHT22;24840;47.508;19.376;2023-01-08T16:33:29;7.50;99.90
39095;DHT22;24840;47.508;19.376;2023-01-08T16:36:00;7.50;99.90
39095;DHT22;24840;47.508;19.376;2023-01-08T16:38:26;7.40;99.90
39095;DHT22;24840;47.508;19.376;2023-01-08T16:40:54;7.40;99.90
39095;DHT22;24840;47.508;19.376;2023-01-08T16:43:22;7.40;99.90
39095;DHT22;24840;47.508;19.376;2023-01-08T16:45:48;7.40;99.90
39095;DHT22;24840;47.508;19.376;2023-01-08T16:48:15;7.40;99.90
39095;DHT22;24840;47.508;19.376;2023-01-08T16:50:42;7.40;99.90
39095;DHT22;24840;47.508;19.376;2023-01-08T16:53:08;7.40;99.90
39095;DHT22;24840;47.508;19.376;2023-01-08T16:55:40;7.40;99.90
39095;DHT22;24840;47.508;19.376;2023-01-08T16:58:07;7.40;99.90
39095;DHT22;24840;47.508;19.376;2023-01-08T17:00:34;7.40;99.90
39095;DHT22;24840;47.508;19.376;2023-01-08T17:03:01;7.30;99.90
39095;DHT22;24840;47.508;19.376;2023-01-08T17:05:27;7.30;99.90